Time;durP1;ratioP1;P1;durP2;ratioP2;P2;SDS_P1;SDS_P2;PMS_P1;PMS_P2;Temp;Humidity;BMP_temperature;BMP_pressure;BME280_temperature;BME280_humidity;BME280_pressure;Samples;Min_cycle;Max_cycle;Signal;HPM_P1;HPM_P2
2023/01/18 00:02:03;;;;;;;67.35;63.28;;;;;;;13.10;100.00;99493.59;5079090;28;20078;-82
2023/01/18 00:04:30;;;;;;;61.40;57.50;;;;;;;13.16;100.00;99484.59;5088088;28;20130;-82
2023/01/18 00:06:57;;;;;;;60.40;56.38;;;;;;;13.21;100.00;99475.81;5085691;28;20056;-83
2023/01/18 00:09:24;;;;;;;64.25;60.25;;;;;;;13.09;100.00;99477.84;5083721;28;20063;-83
2023/01/18 00:11:52;;;;;;;66.07;61.50;;;;;;;13.14;100.00;99481.34;5082587;28;20056;-83
2023/01/18 00:14:18;;;;;;;71.20;66.90;;;;;;;12.91;100.00;99479.78;5078788;28;20082;-83
2023/01/18 00:16:45;;;;;;;62.45;58.38;;;;;;;12.81;100.00;99479.69;5087495;28;20079;-82
2023/01/18 00:19:13;;;;;;;59.67;55.67;;;;;;;12.86;100.00;99489.59;5086788;28;20067;-83
2023/01/18 00:21:40;;;;;;;61.05;57.20;;;;;;;12.97;100.00;99497.44;5074468;28;20048;-82
2023/01/18 00:24:10;;;;;;;58.92;55.45;;;;;;;12.88;100.00;99501.59;5077120;28;20075;-83
2023/01/18 00:26:37;;;;;;;60.17;56.42;;;;;;;13.03;100.00;99498.31;5083640;28;20052;-83
2023/01/18 00:29:09;;;;;;;58.17;54.50;;;;;;;12.89;100.00;99491.75;5084622;28;20108;-82
2023/01/18 00:31:36;;;;;;;62.50;58.60;;;;;;;12.86;100.00;99484.25;5083322;28;20057;-82
2023/01/18 00:34:03;;;;;;;59.58;55.60;;;;;;;12.88;100.00;99482.16;5087891;28;20049;-83
2023/01/18 00:36:30;;;;;;;60.17;56.58;;;;;;;12.81;100.00;99493.81;5085337;28;20157;-85
2023/01/18 00:38:57;;;;;;;59.00;55.42;;;;;;;12.83;100.00;99501.56;5087340;28;20057;-82
2023/01/18 00:41:24;;;;;;;62.63;58.00;;;;;;;12.83;100.00;99501.56;5085173;28;20048;-83
2023/01/18 00:43:50;;;;;;;67.00;63.20;;;;;;;12.79;100.00;99497.78;5077081;28;20054;-83
2023/01/18 00:46:21;;;;;;;72.90;68.15;;;;;;;12.82;100.00;99495.41;5083603;28;20057;-82
2023/01/18 00:48:48;;;;;;;61.00;57.10;;;;;;;12.63;100.00;99494.16;5084417;28;20174;-82
2023/01/18 00:51:17;;;;;;;67.70;62.97;;;;;;;12.70;100.00;99483.28;5083002;28;20056;-83
2023/01/18 00:53:44;;;;;;;56.80;52.95;;;;;;;12.90;100.00;99483.53;5084115;28;20048;-83
2023/01/18 00:56:13;;;;;;;57.95;54.38;;;;;;;12.93;100.00;99485.69;5085428;28;20469;-82
2023/01/18 00:58:40;;;;;;;57.60;53.95;;;;;;;13.05;100.00;99491.66;5084773;28;20230;-82
2023/01/18 01:01:08;;;;;;;59.10;55.20;;;;;;;12.84;100.00;99492.53;5085096;28;20067;-82
2023/01/18 01:06:44;;;;;;;70.35;65.18;;;;;;;12.85;100.00;99478.13;5084712;28;20044;-82
2023/01/18 01:09:12;;;;;;;61.47;57.08;;;;;;;12.91;100.00;99473.66;5084817;28;20122;-83
2023/01/18 01:11:39;;;;;;;60.13;56.22;;;;;;;12.87;100.00;99469.91;5073474;28;20060;-82
2023/01/18 01:27:48;;;;;;;56.63;52.83;;;;;;;13.38;100.00;99465.06;5082684;28;20071;-82
2023/01/18 01:30:15;;;;;;;57.63;54.13;;;;;;;13.46;100.00;99464.56;5085215;28;20106;-83
2023/01/18 01:32:43;;;;;;;62.65;58.67;;;;;;;13.38;100.00;99457.88;5086051;28;20060;-83
2023/01/18 01:35:11;;;;;;;62.38;58.53;;;;;;;13.40;100.00;99460.25;5085749;28;20041;-82
2023/01/18 01:37:38;;;;;;;60.33;56.72;;;;;;;13.47;100.00;99459.00;5082792;28;20079;-83
2023/01/18 01:40:06;;;;;;;63.55;59.63;;;;;;;13.55;100.00;99465.72;5084874;28;20452;-82
2023/01/18 01:42:32;;;;;;;56.03;52.40;;;;;;;13.57;100.00;99462.81;5082476;28;20492;-82
2023/01/18 01:44:59;;;;;;;58.92;55.30;;;;;;;13.43;100.00;99455.22;5080639;28;20102;-82
2023/01/18 01:47:32;;;;;;;60.50;56.17;;;;;;;13.32;100.00;99460.75;5082826;28;20048;-83
2023/01/18 01:50:07;;;;;;;66.28;62.22;;;;;;;13.27;100.00;99459.63;5085290;28;20125;-82
2023/01/18 01:52:39;;;;;;;57.10;53.40;;;;;;;13.53;100.00;99457.19;5085674;28;20044;-82
2023/01/18 01:55:12;;;;;;;59.38;55.38;;;;;;;13.51;100.00;99444.09;5081607;28;20071;-83
2023/01/18 01:57:42;;;;;;;56.53;52.90;;;;;;;13.51;100.00;99448.63;5076017;28;20194;-83
2023/01/18 02:00:12;;;;;;;63.35;59.53;;;;;;;13.54;100.00;99452.66;5084527;28;20059;-83
2023/01/18 02:02:40;;;;;;;61.17;57.03;;;;;;;13.50;100.00;99447.81;5077638;28;20049;-82
2023/01/18 02:05:09;;;;;;;60.58;56.70;;;;;;;13.72;100.00;99447.69;5071294;28;20052;-83
2023/01/18 02:07:37;;;;;;;61.72;58.13;;;;;;;13.66;100.00;99453.25;5071532;28;20060;-82
2023/01/18 02:10:05;;;;;;;60.78;56.38;;;;;;;13.77;100.00;99454.13;5068553;28;20588;-82
2023/01/18 02:12:33;;;;;;;56.83;53.13;;;;;;;13.83;100.00;99453.91;5068913;28;20048;-82
2023/01/18 02:15:01;;;;;;;59.88;56.40;;;;;;;14.03;100.00;99458.56;5072873;28;20426;-82
2023/01/18 02:17:43;;;;;;;61.67;57.78;;;;;;;14.01;100.00;99460.69;5072730;28;20197;-82
2023/01/18 02:20:36;;;;;;;60.85;57.15;;;;;;;13.95;100.00;99469.75;5059685;28;20036;-82
2023/01/18 02:23:30;;;;;;;68.30;63.95;;;;;;;13.90;100.00;99443.00;5066736;28;20566;-82
2023/01/18 02:26:30;;;;;;;65.90;61.90;;;;;;;13.93;100.00;99451.28;5071731;28;20079;-82
2023/01/18 02:29:02;;;;;;;64.55;60.25;;;;;;;13.96;100.00;99445.44;5067623;28;20464;-82
2023/01/18 02:31:35;;;;;;;62.97;59.05;;;;;;;14.01;100.00;99455.34;5064586;28;20057;-82
2023/01/18 02:34:07;;;;;;;65.78;61.45;;;;;;;13.97;100.00;99452.38;5063499;28;20106;-82
2023/01/18 02:36:44;;;;;;;70.55;65.88;;;;;;;14.00;100.00;99458.28;5067967;28;20109;-82
2023/01/18 02:39:37;;;;;;;66.18;61.55;;;;;;;14.12;100.00;99467.69;5081119;28;20070;-82
2023/01/18 02:47:42;;;;;;;67.90;62.92;;;;;;;14.28;100.00;99462.41;5075869;28;20555;-82
2023/01/18 02:50:10;;;;;;;67.10;62.97;;;;;;;13.94;100.00;99462.78;5073698;28;20052;-82
2023/01/18 02:52:44;;;;;;;66.82;62.13;;;;;;;14.13;100.00;99447.94;5071275;28;20122;-82
2023/01/18 02:56:14;;;;;;;61.25;56.65;;;;;;;14.20;100.00;99458.38;5082566;28;20915;-81
2023/01/18 02:58:45;;;;;;;64.22;60.03;;;;;;;14.06;100.00;99467.91;5079554;28;20061;-81
2023/01/18 03:01:17;;;;;;;64.50;60.42;;;;;;;14.12;100.00;99456.19;5074530;28;20070;-80
2023/01/18 03:03:48;;;;;;;68.53;63.95;;;;;;;14.04;100.00;99468.19;5076615;28;20048;-80
2023/01/18 03:06:15;;;;;;;71.30;66.60;;;;;;;14.19;100.00;99460.25;5076630;28;20095;-80
2023/01/18 03:08:45;;;;;;;70.50;65.85;;;;;;;14.06;100.00;99455.38;5075188;28;20048;-81
2023/01/18 03:11:19;;;;;;;74.13;68.90;;;;;;;14.27;100.00;99458.13;5078784;28;20102;-81
2023/01/18 03:13:59;;;;;;;67.80;63.00;;;;;;;14.13;100.00;99447.13;5079704;28;20087;-81
2023/01/18 03:16:38;;;;;;;75.50;70.50;;;;;;;14.06;100.00;99459.91;5076395;28;20052;-81
2023/01/18 03:21:57;;;;;;;62.35;58.45;;;;;;;14.02;100.00;99470.31;5076909;28;20059;-80
2023/01/18 03:24:22;;;;;;;68.40;64.00;;;;;;;14.16;100.00;99457.28;5072221;28;20048;-80
2023/01/18 03:26:55;;;;;;;61.08;56.95;;;;;;;14.20;100.00;99455.72;5082295;28;20142;-80
2023/01/18 03:35:02;;;;;;;67.15;62.33;;;;;;;13.93;100.00;99469.19;5075573;28;20121;-80
2023/01/18 03:37:32;;;;;;;64.68;60.38;;;;;;;14.15;100.00;99464.50;5071074;28;20053;-80
2023/01/18 03:40:03;;;;;;;62.80;58.67;;;;;;;14.15;100.00;99464.50;5075074;28;20056;-81
2023/01/18 03:42:36;;;;;;;56.78;52.63;;;;;;;14.10;100.00;99475.16;5071791;28;20056;-82
2023/01/18 03:45:08;;;;;;;52.15;48.53;;;;;;;14.15;100.00;99459.16;5078731;28;20083;-82
2023/01/18 03:47:35;;;;;;;55.37;51.80;;;;;;;14.05;100.00;99458.31;5078253;28;20472;-82
2023/01/18 03:50:02;;;;;;;54.35;50.33;;;;;;;14.04;100.00;99462.03;5076979;28;20048;-82
2023/01/18 03:52:36;;;;;;;57.55;53.20;;;;;;;14.18;100.00;99455.97;5075767;28;20110;-81
2023/01/18 03:55:09;;;;;;;55.80;51.65;;;;;;;14.08;100.00;99444.44;5066067;28;20116;-82
2023/01/18 03:57:43;;;;;;;54.08;50.38;;;;;;;13.96;100.00;99461.47;5074012;28;20111;-80
2023/01/18 04:00:12;;;;;;;53.97;49.95;;;;;;;13.91;100.00;99465.97;5073367;28;20134;-80
2023/01/18 04:02:38;;;;;;;57.83;54.03;;;;;;;13.81;100.00;99466.69;5078322;28;20056;-81
2023/01/18 04:05:06;;;;;;;57.60;53.00;;;;;;;13.91;100.00;99466.75;5086257;28;20048;-83
2023/01/18 04:07:33;;;;;;;53.70;49.92;;;;;;;13.89;100.00;99470.78;5065597;28;20048;-83
2023/01/18 04:10:00;;;;;;;57.60;53.83;;;;;;;13.78;100.00;99480.56;5066256;28;20079;-83
2023/01/18 04:12:27;;;;;;;51.55;47.88;;;;;;;13.85;100.00;99475.78;5072237;28;20044;-82
2023/01/18 04:14:56;;;;;;;60.08;55.90;;;;;;;13.73;100.00;99483.97;5068740;28;20064;-83
2023/01/18 04:17:22;;;;;;;56.67;52.35;;;;;;;13.60;100.00;99478.31;5070252;28;20060;-81
2023/01/18 04:19:49;;;;;;;58.65;54.67;;;;;;;13.32;100.00;99468.75;5071949;28;20469;-82
2023/01/18 04:22:16;;;;;;;59.80;55.15;;;;;;;13.25;100.00;99484.94;5070516;28;20052;-83
2023/01/18 04:24:42;;;;;;;54.53;50.67;;;;;;;13.39;100.00;99480.81;5059411;28;20068;-82
2023/01/18 04:27:09;;;;;;;56.63;52.83;;;;;;;13.37;100.00;99476.78;5062994;28;20052;-82
2023/01/18 04:29:36;;;;;;;58.15;54.17;;;;;;;13.36;100.00;99477.84;5058885;28;20505;-82
2023/01/18 04:32:05;;;;;;;56.30;52.40;;;;;;;13.31;100.00;99493.78;5060424;28;20110;-82
2023/01/18 04:34:32;;;;;;;56.17;52.10;;;;;;;13.25;100.00;99490.28;5065456;28;20049;-82
2023/01/18 04:36:59;;;;;;;57.65;53.15;;;;;;;13.21;100.00;99489.16;5064050;28;20049;-82
2023/01/18 04:39:26;;;;;;;65.90;61.40;;;;;;;13.13;100.00;99494.94;4990396;28;20111;-80
2023/01/18 04:41:52;;;;;;;64.30;59.88;;;;;;;13.09;100.00;99504.50;5040249;28;20045;-82
2023/01/18 04:44:19;;;;;;;66.13;61.50;;;;;;;12.98;100.00;99500.91;5039154;28;20049;-82
2023/01/18 04:46:46;;;;;;;59.17;54.95;;;;;;;13.17;100.00;99496.84;5031223;28;20045;-80
2023/01/18 04:49:16;;;;;;;59.13;54.78;;;;;;;13.14;100.00;99492.03;5027800;28;20055;-82
2023/01/18 04:51:43;;;;;;;63.33;58.33;;;;;;;12.91;100.00;99502.97;5039269;28;20045;-82
2023/01/18 04:54:10;;;;;;;62.30;58.03;;;;;;;13.05;100.00;99501.53;5040832;28;20053;-82
2023/01/18 04:56:37;;;;;;;60.00;56.05;;;;;;;13.25;100.00;99500.94;5033475;28;20041;-82
2023/01/18 04:59:04;;;;;;;59.13;55.25;;;;;;;13.18;100.00;99514.44;5037375;28;20046;-83
2023/01/18 05:01:32;;;;;;;57.28;53.35;;;;;;;13.04;100.00;99506.06;5036590;28;20107;-83
2023/01/18 05:03:58;;;;;;;57.15;52.90;;;;;;;13.01;100.00;99511.06;5025651;28;20065;-83
2023/01/18 05:06:27;;;;;;;60.72;56.83;;;;;;;12.95;100.00;99512.06;5030666;28;20098;-82
2023/01/18 05:08:53;;;;;;;59.15;54.55;;;;;;;13.09;100.00;99517.81;5028227;28;20497;-82
2023/01/18 05:11:21;;;;;;;56.85;52.88;;;;;;;12.93;100.00;99524.84;5031214;28;20506;-83
2023/01/18 05:13:48;;;;;;;55.78;51.72;;;;;;;13.21;100.00;99521.13;5034143;28;20474;-82
2023/01/18 05:16:16;;;;;;;55.85;52.05;;;;;;;13.33;100.00;99534.34;5036900;28;20123;-82
2023/01/18 05:18:44;;;;;;;58.47;54.05;;;;;;;13.07;100.00;99534.88;5032511;28;20112;-82
2023/01/18 05:21:11;;;;;;;59.60;55.65;;;;;;;13.03;100.00;99516.97;5044532;28;20083;-82
2023/01/18 05:23:39;;;;;;;57.13;52.92;;;;;;;13.16;100.00;99532.56;5036901;28;20044;-82
2023/01/18 05:26:13;;;;;;;60.75;56.28;;;;;;;13.24;100.00;99539.28;5040628;28;20408;-82
2023/01/18 05:28:40;;;;;;;57.55;53.58;;;;;;;13.36;100.00;99545.31;5036497;28;20422;-82
2023/01/18 05:31:07;;;;;;;54.15;50.45;;;;;;;13.18;100.00;99550.97;5046015;28;20111;-83
2023/01/18 05:33:34;;;;;;;51.10;46.97;;;;;;;13.13;100.00;99541.06;5029746;28;20080;-82
2023/01/18 05:36:01;;;;;;;54.55;50.83;;;;;;;13.11;100.00;99553.03;5048471;28;20099;-82
2023/01/18 05:38:28;;;;;;;51.63;48.13;;;;;;;13.17;100.00;99547.50;5036638;28;20959;-82
2023/01/18 05:40:56;;;;;;;52.70;48.85;;;;;;;13.26;100.00;99567.34;5043894;28;20057;-82
2023/01/18 05:43:24;;;;;;;51.50;47.88;;;;;;;13.41;100.00;99558.69;5038178;28;20049;-82
2023/01/18 05:45:51;;;;;;;50.72;47.08;;;;;;;13.55;100.00;99560.94;5038613;28;20419;-82
2023/01/18 05:48:20;;;;;;;53.28;49.35;;;;;;;13.45;100.00;99546.47;5034393;28;20049;-82
2023/01/18 05:50:48;;;;;;;51.15;47.60;;;;;;;13.55;100.00;99569.75;5033842;28;20049;-82
2023/01/18 05:53:17;;;;;;;51.65;47.20;;;;;;;13.50;100.00;99559.06;5045522;28;20133;-82
2023/01/18 05:55:44;;;;;;;53.53;49.35;;;;;;;13.60;100.00;99569.00;5038690;28;20049;-82
2023/01/18 05:58:12;;;;;;;50.72;46.75;;;;;;;13.51;100.00;99563.31;5039421;28;20054;-82
2023/01/18 06:00:39;;;;;;;50.63;46.70;;;;;;;13.51;100.00;99569.47;5034766;28;20054;-82
2023/01/18 06:03:05;;;;;;;51.58;47.55;;;;;;;13.53;100.00;99566.56;5040097;28;20111;-83
2023/01/18 06:05:32;;;;;;;51.65;47.80;;;;;;;13.64;100.00;99562.09;5044260;28;20049;-82
2023/01/18 06:07:59;;;;;;;54.22;50.33;;;;;;;13.58;100.00;99574.56;5022954;28;20045;-83
2023/01/18 06:10:26;;;;;;;52.60;48.63;;;;;;;13.44;100.00;99574.19;5042105;28;20131;-82
2023/01/18 06:12:52;;;;;;;56.08;52.10;;;;;;;13.32;100.00;99570.09;5042606;28;20518;-82
2023/01/18 06:15:20;;;;;;;54.13;50.05;;;;;;;13.25;100.00;99579.09;5044400;28;20049;-82
2023/01/18 06:17:47;;;;;;;53.50;49.15;;;;;;;13.12;100.00;99574.09;5041531;28;20407;-82
2023/01/18 06:20:14;;;;;;;53.53;49.33;;;;;;;13.08;100.00;99575.66;5039597;28;20049;-82
2023/01/18 06:22:41;;;;;;;96.30;83.03;;;;;;;12.98;100.00;99584.34;5031026;28;20054;-83
2023/01/18 06:25:08;;;;;;;56.45;51.92;;;;;;;13.02;100.00;99588.13;5040139;28;20053;-82
2023/01/18 06:27:38;;;;;;;66.47;60.08;;;;;;;12.81;100.00;99586.28;5045418;28;20124;-82
2023/01/18 06:30:06;;;;;;;62.65;57.95;;;;;;;12.49;100.00;99597.56;5042218;28;20071;-82
2023/01/18 06:32:34;;;;;;;61.42;56.60;;;;;;;12.59;100.00;99599.59;5043354;28;20088;-82
2023/01/18 06:35:01;;;;;;;62.83;57.47;;;;;;;12.57;100.00;99607.81;5043460;28;20053;-82
2023/01/18 06:37:27;;;;;;;61.13;56.72;;;;;;;12.65;100.00;99608.44;5042532;28;20107;-82
2023/01/18 06:39:54;;;;;;;58.30;53.75;;;;;;;12.60;100.00;99607.31;5039884;28;20049;-82
2023/01/18 06:42:21;;;;;;;57.17;52.55;;;;;;;13.13;100.00;99605.06;5045357;28;20045;-82
2023/01/18 06:44:47;;;;;;;53.47;49.55;;;;;;;13.37;100.00;99599.44;5043387;28;20469;-82
2023/01/18 06:47:18;;;;;;;61.20;56.72;;;;;;;13.39;100.00;99602.69;5044533;28;20095;-82
2023/01/18 06:49:47;;;;;;;53.42;49.53;;;;;;;13.40;100.00;99598.94;5031113;28;20132;-82
2023/01/18 06:52:14;;;;;;;57.42;53.03;;;;;;;13.45;100.00;99601.66;5019376;28;20045;-82
2023/01/18 06:54:41;;;;;;;57.30;52.58;;;;;;;13.59;100.00;99605.56;5030783;28;20108;-82
2023/01/18 06:57:08;;;;;;;57.67;53.50;;;;;;;13.69;100.00;99610.19;5035219;28;20045;-82
2023/01/18 06:59:34;;;;;;;55.83;51.42;;;;;;;13.83;100.00;99614.03;5039867;28;20172;-82
2023/01/18 07:02:01;;;;;;;52.15;48.70;;;;;;;14.53;100.00;99614.03;5030432;28;20569;-82
2023/01/18 07:04:28;;;;;;;55.92;51.53;;;;;;;14.36;100.00;99614.97;5037369;28;20053;-82
2023/01/18 07:06:56;;;;;;;54.55;49.72;;;;;;;14.23;100.00;99615.41;5043091;28;20056;-82
2023/01/18 07:09:23;;;;;;;53.75;49.55;;;;;;;14.12;100.00;99613.72;5028963;28;20041;-82
2023/01/18 07:11:50;;;;;;;53.88;49.45;;;;;;;14.23;100.00;99618.09;5044772;28;20515;-82
2023/01/18 07:14:16;;;;;;;56.97;51.95;;;;;;;14.70;100.00;99616.53;5031678;28;20098;-82
2023/01/18 07:16:43;;;;;;;53.22;49.00;;;;;;;14.80;100.00;99621.94;5041544;28;20414;-82
2023/01/18 07:19:10;;;;;;;53.05;49.10;;;;;;;14.55;100.00;99626.06;5041915;28;20049;-83
2023/01/18 07:21:38;;;;;;;52.83;48.83;;;;;;;14.80;100.00;99627.28;5038710;28;20045;-83
2023/01/18 07:24:06;;;;;;;53.10;49.38;;;;;;;14.82;100.00;99631.28;5046545;28;20061;-83
2023/01/18 07:26:33;;;;;;;54.72;50.03;;;;;;;15.34;100.00;99632.31;5038758;28;20461;-83
2023/01/18 07:29:00;;;;;;;53.67;49.67;;;;;;;15.76;100.00;99631.31;5052841;28;20114;-83
2023/01/18 07:31:27;;;;;;;54.95;50.45;;;;;;;15.91;100.00;99623.28;5048800;28;20058;-83
2023/01/18 07:33:53;;;;;;;53.83;49.63;;;;;;;16.33;100.00;99622.22;5047599;28;20048;-82
2023/01/18 07:36:21;;;;;;;58.03;52.75;;;;;;;16.36;100.00;99620.88;5054134;28;20057;-83
2023/01/18 07:38:48;;;;;;;55.53;51.38;;;;;;;16.58;100.00;99617.88;5040194;28;20075;-82
2023/01/18 07:41:16;;;;;;;55.47;51.35;;;;;;;16.93;100.00;99633.88;5050569;28;20048;-83
2023/01/18 07:43:44;;;;;;;55.60;51.30;;;;;;;16.97;100.00;99633.34;5051850;28;20115;-83
2023/01/18 07:46:13;;;;;;;53.10;49.05;;;;;;;16.90;100.00;99617.53;5052129;28;20060;-83
2023/01/18 07:48:40;;;;;;;56.72;52.53;;;;;;;16.90;100.00;99614.84;5042632;28;20179;-83
2023/01/18 07:51:08;;;;;;;56.10;51.90;;;;;;;17.03;100.00;99624.19;5049498;28;20071;-83
2023/01/18 07:53:37;;;;;;;53.60;49.47;;;;;;;17.40;100.00;99623.75;5048423;28;20545;-83
2023/01/18 07:56:05;;;;;;;54.88;50.90;;;;;;;17.44;100.00;99630.16;5047238;28;20053;-83
2023/01/18 07:58:34;;;;;;;56.75;52.45;;;;;;;17.83;100.00;99642.84;5049130;28;20041;-83
2023/01/18 08:01:05;;;;;;;56.15;51.97;;;;;;;17.10;100.00;99624.72;5046245;28;20068;-83
2023/01/18 08:03:32;;;;;;;55.67;51.33;;;;;;;16.94;100.00;99632.00;5050815;28;20045;-83
2023/01/18 08:05:59;;;;;;;56.50;51.80;;;;;;;17.00;100.00;99632.78;5047111;28;20058;-83
2023/01/18 08:08:27;;;;;;;54.75;50.60;;;;;;;17.27;100.00;99624.34;5048594;28;20388;-83
2023/01/18 08:10:55;;;;;;;53.40;49.03;;;;;;;17.93;100.00;99623.16;5055579;28;20071;-83
2023/01/18 08:13:22;;;;;;;52.22;48.25;;;;;;;18.02;100.00;99629.50;5038574;28;20073;-82
2023/01/18 08:15:50;;;;;;;54.70;50.72;;;;;;;18.01;100.00;99619.88;5044675;28;20054;-83
2023/01/18 08:18:17;;;;;;;51.33;47.72;;;;;;;17.60;100.00;99634.34;5042717;28;20054;-83
2023/01/18 08:20:44;;;;;;;52.65;48.65;;;;;;;17.71;100.00;99627.03;5052735;28;20045;-82
2023/01/18 08:23:11;;;;;;;52.95;49.00;;;;;;;18.12;100.00;99626.72;5048169;28;20111;-83
2023/01/18 08:25:38;;;;;;;53.03;48.72;;;;;;;18.38;100.00;99634.56;5054872;28;20067;-83
2023/01/18 08:28:05;;;;;;;51.80;48.42;;;;;;;18.50;100.00;99629.63;5057687;28;20103;-82
2023/01/18 08:30:35;;;;;;;54.45;50.30;;;;;;;19.13;100.00;99634.84;5043924;28;20103;-83
2023/01/18 08:33:04;;;;;;;52.95;49.05;;;;;;;19.35;100.00;99628.09;5046137;28;20649;-82
2023/01/18 08:35:32;;;;;;;52.30;48.65;;;;;;;18.84;100.00;99628.75;5041252;28;20065;-82
2023/01/18 08:38:00;;;;;;;52.75;48.88;;;;;;;19.17;100.00;99624.28;5031581;28;20470;-82
2023/01/18 08:40:27;;;;;;;50.75;47.10;;;;;;;18.40;100.00;99629.72;5044342;28;20049;-83
2023/01/18 08:42:57;;;;;;;54.03;50.30;;;;;;;18.24;100.00;99650.53;5051000;28;20045;-82
2023/01/18 08:45:27;;;;;;;51.85;47.85;;;;;;;18.34;100.00;99637.03;5039032;28;20055;-83
2023/01/18 08:47:57;;;;;;;53.65;49.45;;;;;;;18.26;100.00;99627.69;5049935;28;20049;-83
2023/01/18 08:50:25;;;;;;;53.40;48.97;;;;;;;17.91;100.00;99628.78;5045080;28;20110;-83
2023/01/18 08:52:52;;;;;;;51.60;47.92;;;;;;;17.35;100.00;99635.31;5053926;28;20057;-82
2023/01/18 08:55:19;;;;;;;54.20;50.20;;;;;;;17.59;100.00;99638.13;5055064;28;20064;-83
2023/01/18 08:57:46;;;;;;;54.03;50.08;;;;;;;17.89;100.00;99640.91;5047012;28;20080;-83
2023/01/18 09:00:14;;;;;;;53.05;49.15;;;;;;;17.98;100.00;99644.59;5053735;28;20518;-83
2023/01/18 09:02:41;;;;;;;52.53;48.92;;;;;;;18.47;100.00;99638.25;5057519;28;20050;-83
2023/01/18 09:05:08;;;;;;;52.33;48.65;;;;;;;18.17;100.00;99637.44;5056062;28;20518;-83
2023/01/18 09:07:36;;;;;;;54.15;50.22;;;;;;;18.85;100.00;99630.31;5061922;28;20049;-83
2023/01/18 09:10:03;;;;;;;55.08;50.53;;;;;;;18.21;100.00;99624.25;5056049;28;20105;-84
2023/01/18 09:12:30;;;;;;;54.17;50.38;;;;;;;18.32;100.00;99631.13;5056781;28;20104;-83
2023/01/18 09:14:57;;;;;;;52.88;48.90;;;;;;;18.97;100.00;99636.09;5056103;28;20490;-83
2023/01/18 09:17:24;;;;;;;52.58;48.67;;;;;;;18.36;100.00;99639.44;5056381;28;20071;-83
2023/01/18 09:19:51;;;;;;;53.78;49.63;;;;;;;18.13;100.00;99641.78;5055396;28;20045;-83
2023/01/18 09:22:18;;;;;;;53.67;49.95;;;;;;;18.16;100.00;99654.66;5049185;28;20072;-83
2023/01/18 09:24:46;;;;;;;53.30;49.55;;;;;;;17.92;100.00;99645.72;5058711;28;20076;-83
2023/01/18 09:27:13;;;;;;;53.80;49.72;;;;;;;18.01;100.00;99639.47;5055854;28;20049;-83
2023/01/18 09:29:40;;;;;;;53.40;49.33;;;;;;;17.64;100.00;99639.97;5050404;28;20112;-83
2023/01/18 09:32:07;;;;;;;54.65;50.45;;;;;;;18.31;100.00;99638.41;5055505;28;20053;-83
2023/01/18 09:34:33;;;;;;;54.50;50.17;;;;;;;18.26;100.00;99641.13;5058135;28;20124;-83
2023/01/18 09:37:00;;;;;;;55.53;51.45;;;;;;;18.07;100.00;99642.91;5057905;28;20045;-83
2023/01/18 09:39:27;;;;;;;55.95;51.78;;;;;;;17.87;100.00;99635.81;5061342;28;20430;-83
2023/01/18 09:41:59;;;;;;;55.42;50.97;;;;;;;17.87;100.00;99643.88;5055834;28;20045;-83
2023/01/18 09:44:30;;;;;;;52.50;48.67;;;;;;;17.83;100.00;99643.63;5054618;28;20506;-82
2023/01/18 09:47:02;;;;;;;52.88;49.30;;;;;;;17.59;100.00;99642.69;5053217;28;20041;-83
2023/01/18 09:49:36;;;;;;;53.63;49.65;;;;;;;17.66;100.00;99645.06;5053665;28;20041;-83
2023/01/18 09:52:18;;;;;;;52.78;48.85;;;;;;;17.76;100.00;99655.72;5054357;28;20053;-83
2023/01/18 09:54:52;;;;;;;54.78;50.30;;;;;;;17.72;100.00;99658.16;5050565;28;20081;-83
2023/01/18 09:57:36;;;;;;;54.03;50.03;;;;;;;17.72;100.00;99643.94;5055059;28;20049;-83
2023/01/18 10:00:14;;;;;;;51.85;48.00;;;;;;;18.50;100.00;99637.69;5050669;28;20064;-83
2023/01/18 10:02:44;;;;;;;55.72;51.25;;;;;;;19.26;100.00;99644.09;5055450;28;20092;-84
2023/01/18 10:05:15;;;;;;;57.83;53.33;;;;;;;18.99;100.00;99647.38;5053699;28;20151;-83
2023/01/18 10:07:48;;;;;;;56.30;52.20;;;;;;;19.77;100.00;99656.88;5050926;28;20497;-83
2023/01/18 10:10:17;;;;;;;56.50;52.10;;;;;;;18.95;100.00;99649.84;5056884;28;20052;-83
2023/01/18 10:12:52;;;;;;;59.10;54.72;;;;;;;18.78;100.00;99641.44;5047345;28;20049;-83
2023/01/18 10:15:21;;;;;;;59.08;54.85;;;;;;;19.82;100.00;99640.63;5058055;28;20107;-83
2023/01/18 10:17:52;;;;;;;61.78;57.33;;;;;;;19.98;100.00;99633.13;5051766;28;20041;-83
2023/01/18 10:20:27;;;;;;;59.58;55.33;;;;;;;19.58;100.00;99632.63;5055065;28;20041;-83
2023/01/18 10:22:59;;;;;;;58.58;54.33;;;;;;;19.61;99.71;99644.72;5061678;28;20069;-83
2023/01/18 10:25:32;;;;;;;60.35;55.67;;;;;;;18.96;100.00;99639.91;5052366;28;20050;-83
2023/01/18 10:28:22;;;;;;;55.03;51.42;;;;;;;20.26;100.00;99649.34;5058115;28;20482;-83
2023/01/18 10:31:00;;;;;;;57.47;53.05;;;;;;;21.41;92.92;99645.84;5056108;28;20049;-83
2023/01/18 10:33:31;;;;;;;60.47;56.30;;;;;;;21.24;92.60;99633.75;5055086;28;20056;-83
2023/01/18 10:36:02;;;;;;;60.88;56.58;;;;;;;21.39;84.29;99642.63;5049470;28;20116;-83
2023/01/18 10:38:30;;;;;;;59.85;55.67;;;;;;;21.49;85.14;99647.81;5062827;28;20170;-83
2023/01/18 10:40:59;;;;;;;60.67;56.38;;;;;;;21.62;85.66;99659.69;5053952;28;20496;-83
2023/01/18 10:43:30;;;;;;;60.08;56.00;;;;;;;21.23;87.13;99658.34;5055466;28;20108;-83
2023/01/18 10:45:57;;;;;;;61.20;56.88;;;;;;;19.81;98.44;99668.66;5056035;28;20049;-83
2023/01/18 10:48:28;;;;;;;62.67;57.97;;;;;;;19.58;99.62;99666.84;5051251;28;20049;-83
2023/01/18 10:50:56;;;;;;;62.95;58.10;;;;;;;19.22;100.00;99662.72;5053228;28;20042;-83
2023/01/18 10:53:28;;;;;;;60.50;56.00;;;;;;;19.24;100.00;99667.78;5027421;28;20104;-83
2023/01/18 10:55:58;;;;;;;60.33;55.73;;;;;;;19.07;100.00;99664.81;5051948;28;20084;-83
2023/01/18 10:58:29;;;;;;;59.45;54.97;;;;;;;18.91;100.00;99662.28;5055480;28;20053;-83
2023/01/18 11:00:58;;;;;;;58.73;54.50;;;;;;;18.81;100.00;99656.22;5046224;28;20136;-83
2023/01/18 11:03:27;;;;;;;59.42;55.40;;;;;;;18.62;100.00;99648.84;5054699;28;20176;-83
2023/01/18 11:06:03;;;;;;;57.83;54.00;;;;;;;18.59;100.00;99662.88;5047682;28;20044;-82
2023/01/18 11:08:31;;;;;;;59.38;55.40;;;;;;;18.41;100.00;99675.13;5041258;28;20060;-82
2023/01/18 11:11:00;;;;;;;59.63;55.33;;;;;;;19.03;100.00;99653.78;5043441;28;20414;-82
2023/01/18 11:13:32;;;;;;;59.67;55.55;;;;;;;20.15;100.00;99662.19;5043161;28;20588;-83
2023/01/18 11:16:11;;;;;;;60.97;56.70;;;;;;;20.63;93.53;99661.94;5043803;28;20049;-82
2023/01/18 11:18:39;;;;;;;61.70;56.90;;;;;;;20.97;91.20;99656.16;5046303;28;20053;-82
2023/01/18 11:21:10;;;;;;;62.05;58.05;;;;;;;21.61;85.99;99663.50;5052845;28;20080;-83
2023/01/18 11:23:37;;;;;;;60.97;56.78;;;;;;;21.44;86.61;99666.84;5040436;28;20047;-82
2023/01/18 11:26:08;;;;;;;62.08;57.42;;;;;;;20.95;88.21;99662.97;5048964;28;20106;-82
2023/01/18 11:28:44;;;;;;;62.58;58.00;;;;;;;20.98;86.54;99660.47;5042224;28;20111;-83
2023/01/18 11:31:13;;;;;;;61.08;56.97;;;;;;;20.63;89.43;99672.72;5045218;28;20106;-82
2023/01/18 11:33:49;;;;;;;61.15;56.78;;;;;;;21.17;85.99;99671.13;5047273;28;20053;-82
2023/01/18 11:36:19;;;;;;;60.95;56.85;;;;;;;21.23;85.79;99674.53;5050155;28;20073;-82
2023/01/18 11:38:46;;;;;;;60.80;56.72;;;;;;;20.59;88.91;99669.03;5040561;28;20045;-82
2023/01/18 11:41:15;;;;;;;63.22;59.30;;;;;;;20.38;89.14;99668.56;5047695;28;20515;-82
2023/01/18 11:43:57;;;;;;;61.92;57.50;;;;;;;21.52;83.33;99659.94;5048142;28;20118;-83
2023/01/18 11:46:34;;;;;;;61.42;57.20;;;;;;;21.83;81.98;99663.50;5048416;28;20044;-82
2023/01/18 11:49:11;;;;;;;60.65;56.95;;;;;;;22.11;80.60;99668.81;5047170;28;20092;-83
2023/01/18 11:51:45;;;;;;;60.80;56.72;;;;;;;22.33;75.40;99674.25;5048259;28;20049;-82